Morris, IL

1:05 AM CST on January 28, 2015 (GMT -0600)
Morris North | Change Station
CLOSE
Current Station
Personal Weather Station
Location: Morris, IL
Elevation: 548 ft
Nearby Weather Stations
Active Advisory: Flood Advisory Active Notice: Local Storm Report

Elev 548 ft 41.38 °N, 88.43 °W | Updated 10 seconds ago

Partly Cloudy
Partly Cloudy
21.7 °F
Feels Like 22 °F
N
0.1
Wind Variable Wind from North
Gusts 0.7 mph

Today
High -- | Low -- °F
--% Chance of Precip.
Yesterday
High -- | Low -- °F
Precip. -- in
7:08 AM 5:04 PM
First Quarter, 62% visible
Pressure 30.27 in
Visibility 10.0 miles
Clouds Clear
Windchill 22 °F
Dew Point 16 °F
Humidity 78%
Rainfall 0.00 in
Snow Depth Not available.
UV 0 out of 12
Pollen .10 out of 12
Air Quality Not available.
Flu Activity Not available.
METAR KC09 280655Z AUTO 00000KT 10SM CLR M05/M07 A3027 RMK AO2 T10491070

More Conditions Fewer Conditions

Pressure 30.27 in
Visibility 10.0 miles
Clouds Clear
Windchill 22 °F
Dew Point 16 °F
Humidity 78%
Rainfall 0.00 in
Snow Depth Not available.
UV 0 out of 12
Pollen .10 out of 12
Air Quality Not available.
Flu Activity Not available.
METAR KC09 280655Z AUTO 00000KT 10SM CLR M05/M07 A3027 RMK AO2 T10491070

More Conditions Fewer Conditions

10-Day Weather Forecast

Almanac

Astronomy

Jan. 28, 2015 Rise Set
Actual Time
Civil Twilight
Nautical Twilight
Astronomical Twilight
Moon
Length of Visible Light
Length of Day
Tomorrow will be .
, % of the Moon is Illuminated

Today's Extremes

State Highs State Lows

Community

WunderPhotos

Upload Photos

1,791,118 photos uploaded!

WunderBlogs® & News

Nearby

Air Quality

  Air Quality AQ Index Pollutant
Not available.

Snow Depth

Station Depth Elevation

Earthquake Activity

City Distance Mag. Time & Date
Minimum magnitude displayed is 2.5.

Coastal Water Temperatures

Place Temperature

Nearby Weather Stations